Ana Sayfa
METAR-TAF:

METAR-TAF

Havaalanları :

Dzaoudzi, Mayotte

Enlem: 12-48S, Boylam: 045-17E, yükseklik: 8 m

Güncel hava durumu gözlemi

Rapor saat 04:30 UTC de 27 dakika önce yapıldı.
Rüzgar güneybatıdan 8 kt
Sıcaklık 28°C
Nem 74%
Basınç 1015 hPa
Görüş mesafesi 10 km veya daha fazla
1500 m altında bulut yok ve kümülonimbus yok

METAR: FMCZ 230430Z AUTO 23008KT CAVOK 28/23 Q1015 TEMPO FEW023TCU

Saat: 07:57 (04:57 UTC)

Tahmin

Rapor saat 23:00 UTC de 5 saat ve 57 dakika önce yapıldı.
Ayın 23'si saat 00 UTC'den ayın 23'si saat 24 UTC'ye kadar geçerli Tahmin
Rüzgar güneydan 12 kt
Görüş mesafesi 10 km veya daha fazla
2600 ft yükseklikte az bulutlu
Olasılık 30% :
Geçici
ayın 23'si saat 00 UTC'den ayın 23'si saat 06 UTC'ye kadar
2300 ft yükseklikte az bulutlu, Yükselen kümülüs.

TAF: FMCZ 222300Z 2300/2324 19012KT 9999 FEW026 PROB30 TEMPO 2300/2306 FEW023TCU

4.000'den fazla havaalanı için hava durumu gözlemleri ve tahminleri (METAR ve TAF raporları).

Kullanılabilir istasyonlar harita üzerinde sarı ve kırmızı noktalarla gösterilir.

İstasyonun adını görmek için fareyi noktanın üzerinde gezdirin.

Sonrasında hava gözlem ve tahminlerini görmek için tıklayın.

Haritayı değiştirmek için: yaklaştırmak için siyah artı işaretli yeşil düğmeye ve uzaklaştırmak için de eksi işaretli düğmeye hızla tıklayın; bitişik haritalar için yeşil okları kullanın.


METAR-TAF: